Time;durP1;ratioP1;P1;durP2;ratioP2;P2;SDS_P1;SDS_P2;PMS_P1;PMS_P2;Temp;Humidity;BMP_temperature;BMP_pressure;BME280_temperature;BME280_humidity;BME280_pressure;Samples;Min_cycle;Max_cycle;Signal;HPM_P1;HPM_P2
2021/10/11 00:00:29;;;;;;;46.50;20.77;;;;;;;;;;5033131;28;20030;-73
2021/10/11 00:02:55;;;;;;;48.07;19.33;;;;;;;;;;5032900;28;20101;-71
2021/10/11 00:05:21;;;;;;;40.90;20.83;;;;;;;;;;5031717;28;20497;-72
2021/10/11 00:07:47;;;;;;;47.07;22.27;;;;;;;;;;5031606;28;20031;-72
2021/10/11 00:10:20;;;;;;;42.70;19.90;;;;;;;;;;5032777;28;20036;-73
2021/10/11 00:12:48;;;;;;;40.30;19.80;;;;;;;;;;5034787;28;20021;-72
2021/10/11 00:15:14;;;;;;;50.97;22.23;;;;;;;;;;5035930;28;20029;-73
2021/10/11 00:17:40;;;;;;;45.33;20.43;;;;;;;;;;5033441;28;20013;-72
2021/10/11 00:20:05;;;;;;;43.77;20.20;;;;;;;;;;5032779;28;20442;-72
2021/10/11 00:22:31;;;;;;;45.20;21.17;;;;;;;;;;5033034;28;20029;-72
2021/10/11 00:24:56;;;;;;;50.67;23.23;;;;;;;;;;5032359;28;20099;-72
2021/10/11 00:27:22;;;;;;;45.73;21.67;;;;;;;;;;5031055;28;20052;-71
2021/10/11 00:29:47;;;;;;;48.83;21.20;;;;;;;;;;5030360;28;20460;-73
2021/10/11 00:32:13;;;;;;;45.97;21.57;;;;;;;;;;5031334;28;20461;-73
2021/10/11 00:34:38;;;;;;;43.73;21.03;;;;;;;;;;5032562;28;20052;-75
2021/10/11 00:37:05;;;;;;;43.37;20.27;;;;;;;;;;5031652;28;20550;-75
2021/10/11 00:39:31;;;;;;;47.33;21.53;;;;;;;;;;5030809;28;20112;-76
2021/10/11 00:41:57;;;;;;;44.67;21.23;;;;;;;;;;5032169;28;20105;-76
2021/10/11 00:44:22;;;;;;;44.77;21.50;;;;;;;;;;5032044;28;20482;-74
2021/10/11 00:46:49;;;;;;;46.63;21.57;;;;;;;;;;5031877;28;20042;-75
2021/10/11 00:49:14;;;;;;;44.60;20.07;;;;;;;;;;5031532;28;20027;-75
2021/10/11 00:51:40;;;;;;;44.13;19.47;;;;;;;;;;5031458;28;20465;-75
2021/10/11 00:54:06;;;;;;;44.03;21.27;;;;;;;;;;5031478;28;20385;-76
2021/10/11 00:56:31;;;;;;;57.73;22.40;;;;;;;;;;5031704;28;20025;-75
2021/10/11 00:58:57;;;;;;;45.00;20.30;;;;;;;;;;5030034;28;20033;-72
2021/10/11 01:01:23;;;;;;;45.83;21.23;;;;;;;;;;5031022;28;20496;-76
2021/10/11 01:03:50;;;;;;;50.23;21.97;;;;;;;;;;5031231;28;20524;-74
2021/10/11 01:06:16;;;;;;;45.97;20.80;;;;;;;;;;5031006;28;20079;-75
2021/10/11 01:08:42;;;;;;;52.90;20.43;;;;;;;;;;5031433;28;20030;-76
2021/10/11 01:11:07;;;;;;;47.23;21.60;;;;;;;;;;5029817;28;20033;-71
2021/10/11 01:13:33;;;;;;;48.27;20.83;;;;;;;;;;5031530;28;20036;-73
2021/10/11 01:15:58;;;;;;;45.53;21.33;;;;;;;;;;5031397;28;20442;-72
2021/10/11 01:18:24;;;;;;;43.27;20.77;;;;;;;;;;5031587;28;20037;-72
2021/10/11 01:20:50;;;;;;;43.17;19.97;;;;;;;;;;5030161;28;20151;-72
2021/10/11 01:23:16;;;;;;;51.80;21.10;;;;;;;;;;5031251;28;20481;-72
2021/10/11 01:25:42;;;;;;;43.90;20.77;;;;;;;;;;5030124;28;20029;-71
2021/10/11 01:28:07;;;;;;;40.43;19.43;;;;;;;;;;5031085;28;20033;-71
2021/10/11 01:30:33;;;;;;;46.00;19.93;;;;;;;;;;5029953;28;20029;-71
2021/10/11 01:32:59;;;;;;;50.40;21.63;;;;;;;;;;5029636;28;20029;-71
2021/10/11 01:35:24;;;;;;;42.80;19.83;;;;;;;;;;5031024;28;20504;-73
2021/10/11 01:37:50;;;;;;;37.20;18.07;;;;;;;;;;5030934;28;20065;-72
2021/10/11 01:40:20;;;;;;;43.37;19.63;;;;;;;;;;5030894;28;20541;-72
2021/10/11 01:42:46;;;;;;;39.80;18.37;;;;;;;;;;5029727;28;20267;-71
2021/10/11 01:45:12;;;;;;;46.20;19.80;;;;;;;;;;5031044;28;20033;-73
2021/10/11 01:47:37;;;;;;;40.53;19.60;;;;;;;;;;5030595;28;20147;-73
2021/10/11 01:50:04;;;;;;;42.97;19.53;;;;;;;;;;5030916;28;20053;-72
2021/10/11 01:52:29;;;;;;;42.90;20.83;;;;;;;;;;5030867;28;20499;-71
2021/10/11 01:54:55;;;;;;;43.70;19.23;;;;;;;;;;5030904;28;20040;-72
2021/10/11 01:57:20;;;;;;;40.47;18.60;;;;;;;;;;5029344;28;20025;-71
2021/10/11 01:59:46;;;;;;;50.23;19.13;;;;;;;;;;5030880;28;20032;-71
2021/10/11 02:02:12;;;;;;;45.60;19.30;;;;;;;;;;5030247;28;20095;-71
2021/10/11 02:04:37;;;;;;;40.80;18.50;;;;;;;;;;5029309;28;20037;-71
2021/10/11 02:07:03;;;;;;;40.03;18.73;;;;;;;;;;5030023;28;20417;-71
2021/10/11 02:09:29;;;;;;;43.97;18.37;;;;;;;;;;5029155;28;20026;-71
2021/10/11 02:11:54;;;;;;;40.87;19.07;;;;;;;;;;5030288;28;20041;-70
2021/10/11 02:14:20;;;;;;;42.70;20.07;;;;;;;;;;5028585;28;20033;-71
2021/10/11 02:16:45;;;;;;;41.33;18.30;;;;;;;;;;5029951;28;20504;-74
2021/10/11 02:19:11;;;;;;;46.50;19.70;;;;;;;;;;5029667;28;20439;-75
2021/10/11 02:21:36;;;;;;;40.70;19.17;;;;;;;;;;5029936;28;20049;-74
2021/10/11 02:24:02;;;;;;;40.47;18.03;;;;;;;;;;5028417;28;20029;-74
2021/10/11 02:26:27;;;;;;;42.77;20.17;;;;;;;;;;5029933;28;20086;-75
2021/10/11 02:28:53;;;;;;;42.83;18.50;;;;;;;;;;5028411;28;20499;-74
2021/10/11 02:31:18;;;;;;;41.80;18.97;;;;;;;;;;5027953;28;20168;-73
2021/10/11 02:33:46;;;;;;;38.97;17.43;;;;;;;;;;5029984;28;20468;-75
2021/10/11 02:36:12;;;;;;;38.50;19.67;;;;;;;;;;5028381;28;20029;-74
2021/10/11 02:38:38;;;;;;;35.33;17.67;;;;;;;;;;5028102;28;20045;-74
2021/10/11 02:41:04;;;;;;;41.33;17.80;;;;;;;;;;5028162;28;20386;-75
2021/10/11 02:43:29;;;;;;;40.50;17.53;;;;;;;;;;5028273;28;20048;-75
2021/10/11 02:45:54;;;;;;;39.70;17.37;;;;;;;;;;5029765;28;20025;-73
2021/10/11 02:48:20;;;;;;;41.83;19.00;;;;;;;;;;5028032;28;20390;-72
2021/10/11 02:50:46;;;;;;;41.23;19.03;;;;;;;;;;5028232;28;20028;-74
2021/10/11 02:53:11;;;;;;;34.73;16.63;;;;;;;;;;5033437;28;20032;-74
2021/10/11 02:55:38;;;;;;;43.20;18.87;;;;;;;;;;5036159;28;20515;-74
2021/10/11 02:58:05;;;;;;;40.47;18.17;;;;;;;;;;5036898;28;20033;-73
2021/10/11 03:00:30;;;;;;;40.10;18.23;;;;;;;;;;5037118;28;20017;-69
2021/10/11 03:02:56;;;;;;;41.30;19.17;;;;;;;;;;5036266;28;20397;-71
2021/10/11 03:05:21;;;;;;;37.20;18.97;;;;;;;;;;5035784;28;20033;-71
2021/10/11 03:07:48;;;;;;;41.77;18.87;;;;;;;;;;5035628;28;20026;-71
2021/10/11 03:10:13;;;;;;;44.47;17.87;;;;;;;;;;5036486;28;20021;-73
2021/10/11 03:12:39;;;;;;;42.07;18.30;;;;;;;;;;5038750;28;20379;-73
2021/10/11 03:15:06;;;;;;;43.90;18.13;;;;;;;;;;5035080;28;20025;-73
2021/10/11 03:17:33;;;;;;;36.70;17.83;;;;;;;;;;5034859;28;20029;-74
2021/10/11 03:19:58;;;;;;;41.20;18.63;;;;;;;;;;5036679;28;20037;-71
2021/10/11 03:22:24;;;;;;;38.00;18.53;;;;;;;;;;5035753;28;20032;-72
2021/10/11 03:24:49;;;;;;;34.97;17.53;;;;;;;;;;5036424;28;20537;-71
2021/10/11 03:27:15;;;;;;;40.20;18.17;;;;;;;;;;5034420;28;20064;-71
2021/10/11 03:29:41;;;;;;;39.27;18.30;;;;;;;;;;5036190;28;20028;-72
2021/10/11 03:32:06;;;;;;;40.27;18.83;;;;;;;;;;5035861;28;20056;-71
2021/10/11 03:34:32;;;;;;;39.17;17.70;;;;;;;;;;5036051;28;20470;-73
2021/10/11 03:36:58;;;;;;;39.50;18.70;;;;;;;;;;5035367;28;20520;-74
2021/10/11 03:39:24;;;;;;;38.03;17.20;;;;;;;;;;5035574;28;20419;-73
2021/10/11 03:41:49;;;;;;;37.97;18.30;;;;;;;;;;5034447;28;20029;-74
2021/10/11 03:44:15;;;;;;;36.83;17.97;;;;;;;;;;5035482;28;20025;-72
2021/10/11 03:46:40;;;;;;;38.03;16.73;;;;;;;;;;5035536;28;20079;-73
2021/10/11 03:49:06;;;;;;;33.40;17.27;;;;;;;;;;5034155;28;20383;-74
2021/10/11 03:51:32;;;;;;;35.20;17.73;;;;;;;;;;5034206;28;20057;-73
2021/10/11 03:53:58;;;;;;;42.10;20.07;;;;;;;;;;5034222;28;20041;-73
2021/10/11 03:56:23;;;;;;;35.67;17.80;;;;;;;;;;5035185;28;20071;-74
2021/10/11 03:58:49;;;;;;;47.50;18.37;;;;;;;;;;5034020;28;20448;-75
2021/10/11 04:01:15;;;;;;;37.07;17.53;;;;;;;;;;5033908;28;20029;-74
2021/10/11 04:03:40;;;;;;;43.63;17.53;;;;;;;;;;5032715;28;20607;-73
2021/10/11 04:06:06;;;;;;;42.40;18.70;;;;;;;;;;5031556;28;20026;-72
2021/10/11 04:08:40;;;;;;;38.63;17.73;;;;;;;;;;5030793;28;20449;-73
2021/10/11 04:13:44;;;;;;;36.43;17.40;;;;;;;;;;5016953;28;20087;-74
2021/10/11 04:16:10;;;;;;;41.93;16.87;;;;;;;;;;5014707;28;20032;-75
2021/10/11 04:18:36;;;;;;;41.90;17.87;;;;;;;;;;5015514;28;20034;-72
2021/10/11 04:21:02;;;;;;;37.33;17.50;;;;;;;;;;5014097;28;20096;-73
2021/10/11 04:23:28;;;;;;;38.40;17.57;;;;;;;;;;5022911;28;20079;-73
2021/10/11 04:25:54;;;;;;;36.03;17.27;;;;;;;;;;5030706;28;20021;-73
2021/10/11 04:28:19;;;;;;;34.80;17.67;;;;;;;;;;5022091;28;20113;-73
2021/10/11 04:30:45;;;;;;;37.43;17.03;;;;;;;;;;5031129;28;20037;-74
2021/10/11 04:33:11;;;;;;;47.03;17.27;;;;;;;;;;5028629;28;20029;-75
2021/10/11 04:35:37;;;;;;;38.60;18.00;;;;;;;;;;5010536;28;20034;-75
2021/10/11 04:38:03;;;;;;;34.93;17.63;;;;;;;;;;5009818;28;20038;-73
2021/10/11 04:40:29;;;;;;;38.63;17.30;;;;;;;;;;5010236;28;20445;-74
2021/10/11 04:42:54;;;;;;;34.20;16.73;;;;;;;;;;5018131;28;20029;-74
2021/10/11 04:45:26;;;;;;;32.33;15.93;;;;;;;;;;5029617;28;20032;-73
2021/10/11 04:47:56;;;;;;;;;;;;;;;;;;5026400;28;20458;-73
2021/10/11 04:50:22;;;;;;;33.83;15.67;;;;;;;;;;5027567;28;19924;-73
2021/10/11 04:52:48;;;;;;;35.27;16.70;;;;;;;;;;5022566;28;20432;-74
2021/10/11 04:55:14;;;;;;;34.57;16.80;;;;;;;;;;5020215;28;20040;-73
2021/10/11 04:57:39;;;;;;;34.90;17.43;;;;;;;;;;5024530;28;20382;-74
2021/10/11 05:00:06;;;;;;;41.53;17.17;;;;;;;;;;5034675;28;20037;-73
2021/10/11 05:02:31;;;;;;;37.07;16.60;;;;;;;;;;5033296;28;20025;-74
2021/10/11 05:04:57;;;;;;;43.07;19.20;;;;;;;;;;5033597;28;20112;-74
2021/10/11 05:07:22;;;;;;;29.93;14.33;;;;;;;;;;5028124;28;20382;-74
2021/10/11 05:09:49;;;;;;;45.33;19.00;;;;;;;;;;5031052;28;20343;-74
2021/10/11 05:12:14;;;;;;;38.23;17.03;;;;;;;;;;5021437;28;20075;-74
2021/10/11 05:14:40;;;;;;;36.30;16.47;;;;;;;;;;5013620;28;20033;-74
2021/10/11 05:17:05;;;;;;;38.73;18.00;;;;;;;;;;5007839;28;20080;-74
2021/10/11 05:19:31;;;;;;;39.67;18.30;;;;;;;;;;5009950;28;20026;-73
2021/10/11 05:21:57;;;;;;;35.50;16.60;;;;;;;;;;5011046;28;20018;-75
2021/10/11 05:24:26;;;;;;;35.57;17.53;;;;;;;;;;5009364;28;20022;-74
2021/10/11 05:26:53;;;;;;;39.47;18.33;;;;;;;;;;5010817;28;20026;-73
2021/10/11 05:29:20;;;;;;;35.00;17.80;;;;;;;;;;5009463;28;20128;-74
2021/10/11 05:31:46;;;;;;;51.07;26.63;;;;;;;;;;5011269;28;20037;-75
2021/10/11 05:34:12;;;;;;;38.40;16.73;;;;;;;;;;5006616;28;20036;-75
2021/10/11 05:36:38;;;;;;;35.60;17.60;;;;;;;;;;5012563;28;20033;-74
2021/10/11 05:39:03;;;;;;;39.40;17.03;;;;;;;;;;5025409;28;20033;-74
2021/10/11 05:41:29;;;;;;;35.97;16.50;;;;;;;;;;5010800;28;20350;-75
2021/10/11 05:43:54;;;;;;;43.33;18.77;;;;;;;;;;5015008;28;20030;-74
2021/10/11 05:46:20;;;;;;;38.33;17.20;;;;;;;;;;5016609;28;20507;-77
2021/10/11 05:48:45;;;;;;;43.17;17.40;;;;;;;;;;5024286;28;20026;-74
2021/10/11 05:51:11;;;;;;;34.07;15.97;;;;;;;;;;5029553;28;20021;-74
2021/10/11 05:53:36;;;;;;;33.53;15.20;;;;;;;;;;5029102;28;20240;-73
2021/10/11 05:56:02;;;;;;;39.03;16.50;;;;;;;;;;5028456;28;20060;-74
2021/10/11 05:58:27;;;;;;;43.67;17.33;;;;;;;;;;5027340;28;20024;-74
2021/10/11 06:00:53;;;;;;;37.50;17.40;;;;;;;;;;5029459;28;20064;-75
2021/10/11 06:03:18;;;;;;;43.43;16.27;;;;;;;;;;5028152;28;20313;-74
2021/10/11 06:05:45;;;;;;;38.27;18.20;;;;;;;;;;5025082;28;20180;-75
2021/10/11 06:08:11;;;;;;;44.40;18.63;;;;;;;;;;5010272;28;20026;-74
2021/10/11 06:10:37;;;;;;;36.70;17.53;;;;;;;;;;5018324;28;20021;-75
2021/10/11 06:13:02;;;;;;;42.07;17.13;;;;;;;;;;5024017;28;20136;-73
2021/10/11 06:15:28;;;;;;;35.40;16.73;;;;;;;;;;5020657;28;20271;-74
2021/10/11 06:17:54;;;;;;;35.37;17.17;;;;;;;;;;5026904;28;20025;-74
2021/10/11 06:20:19;;;;;;;39.13;17.50;;;;;;;;;;5018504;28;20033;-74
2021/10/11 06:22:49;;;;;;;47.30;17.77;;;;;;;;;;5024485;28;20286;-74
2021/10/11 06:25:14;;;;;;;42.30;18.57;;;;;;;;;;5016559;28;20771;-73
2021/10/11 06:27:40;;;;;;;38.70;18.07;;;;;;;;;;5021486;28;20025;-75
2021/10/11 06:30:06;;;;;;;36.40;16.60;;;;;;;;;;5023869;28;20106;-75
2021/10/11 06:32:32;;;;;;;35.73;16.37;;;;;;;;;;5025407;28;20449;-73
2021/10/11 06:34:58;;;;;;;31.77;15.07;;;;;;;;;;5026905;28;20029;-74
2021/10/11 06:37:23;;;;;;;32.93;16.90;;;;;;;;;;5023094;28;20165;-74
2021/10/11 06:39:51;;;;;;;33.70;17.33;;;;;;;;;;5017340;28;20464;-76
2021/10/11 06:42:18;;;;;;;35.00;16.93;;;;;;;;;;5016488;28;20478;-76
2021/10/11 06:44:43;;;;;;;33.43;17.43;;;;;;;;;;5005541;28;20124;-73
2021/10/11 06:47:09;;;;;;;39.20;17.93;;;;;;;;;;5013178;28;20021;-74
2021/10/11 06:49:36;;;;;;;36.83;17.90;;;;;;;;;;5014576;28;20033;-75
2021/10/11 06:52:02;;;;;;;38.23;18.07;;;;;;;;;;5027698;28;20462;-74
2021/10/11 06:54:28;;;;;;;38.30;16.40;;;;;;;;;;5025543;28;20062;-75
2021/10/11 06:56:53;;;;;;;37.37;17.50;;;;;;;;;;5014731;28;20021;-75
2021/10/11 06:59:19;;;;;;;40.53;16.90;;;;;;;;;;5017365;28;20053;-74
2021/10/11 07:01:44;;;;;;;36.33;17.43;;;;;;;;;;5021592;28;20025;-74
2021/10/11 07:04:10;;;;;;;37.00;17.37;;;;;;;;;;5025467;28;20056;-74
2021/10/11 07:06:36;;;;;;;36.53;17.53;;;;;;;;;;5026098;28;20103;-74
2021/10/11 07:09:02;;;;;;;35.47;16.20;;;;;;;;;;5025665;28;20073;-74
2021/10/11 07:11:28;;;;;;;42.47;17.83;;;;;;;;;;5024539;28;20037;-75
2021/10/11 07:13:53;;;;;;;57.20;23.40;;;;;;;;;;5017213;28;20082;-75
2021/10/11 07:16:19;;;;;;;34.40;16.40;;;;;;;;;;5021241;28;20026;-75
2021/10/11 07:18:44;;;;;;;35.70;17.90;;;;;;;;;;5016874;28;20092;-75
2021/10/11 07:21:09;;;;;;;35.27;16.20;;;;;;;;;;5024250;28;20040;-74
2021/10/11 07:23:35;;;;;;;34.37;16.87;;;;;;;;;;5024454;28;20025;-75
2021/10/11 07:26:04;;;;;;;32.70;16.63;;;;;;;;;;5014259;28;20101;-73
2021/10/11 07:28:30;;;;;;;35.83;17.77;;;;;;;;;;5017641;28;20069;-75
2021/10/11 07:30:55;;;;;;;37.37;16.57;;;;;;;;;;5018030;28;20464;-74
2021/10/11 07:33:22;;;;;;;37.93;16.27;;;;;;;;;;5025340;28;20021;-74
2021/10/11 07:35:49;;;;;;;29.87;14.67;;;;;;;;;;5021420;28;20032;-74
2021/10/11 07:38:14;;;;;;;34.80;17.13;;;;;;;;;;5019247;28;20046;-74
2021/10/11 07:40:40;;;;;;;32.17;15.07;;;;;;;;;;5022271;28;20044;-73
2021/10/11 07:43:06;;;;;;;34.20;15.47;;;;;;;;;;5020810;28;20025;-74
2021/10/11 07:45:32;;;;;;;38.50;16.20;;;;;;;;;;5025569;28;20033;-75
2021/10/11 07:47:58;;;;;;;33.87;17.33;;;;;;;;;;5018732;28;20500;-73
2021/10/11 07:50:23;;;;;;;35.93;15.70;;;;;;;;;;5020457;28;20481;-75
2021/10/11 07:52:49;;;;;;;31.07;16.07;;;;;;;;;;5021982;28;20030;-75
2021/10/11 07:55:16;;;;;;;39.53;15.63;;;;;;;;;;5025054;28;20032;-74
2021/10/11 07:57:42;;;;;;;39.97;16.57;;;;;;;;;;5018819;28;20377;-75
2021/10/11 08:00:11;;;;;;;33.70;14.67;;;;;;;;;;5030100;28;20083;-74
2021/10/11 08:02:37;;;;;;;25.47;14.40;;;;;;;;;;5014644;28;20477;-74
2021/10/11 08:05:03;;;;;;;25.90;14.00;;;;;;;;;;5027249;28;20049;-73
2021/10/11 08:07:29;;;;;;;38.70;15.20;;;;;;;;;;5028607;28;20109;-74
2021/10/11 08:09:54;;;;;;;26.90;14.20;;;;;;;;;;5026946;28;20129;-73
2021/10/11 08:12:20;;;;;;;27.63;13.73;;;;;;;;;;5022958;28;20025;-75
2021/10/11 08:14:45;;;;;;;26.97;13.97;;;;;;;;;;5023486;28;20068;-73
2021/10/11 08:17:12;;;;;;;28.20;13.23;;;;;;;;;;5010847;28;20130;-73
2021/10/11 08:19:39;;;;;;;22.63;11.23;;;;;;;;;;5014501;28;20536;-75
2021/10/11 08:22:04;;;;;;;29.70;13.63;;;;;;;;;;5020517;28;20060;-75
2021/10/11 08:24:30;;;;;;;30.23;16.57;;;;;;;;;;5022401;28;20064;-74
2021/10/11 08:26:56;;;;;;;28.60;13.60;;;;;;;;;;5021912;28;20401;-74
2021/10/11 08:29:21;;;;;;;23.10;12.40;;;;;;;;;;5026215;28;20071;-74
2021/10/11 08:31:47;;;;;;;24.73;12.33;;;;;;;;;;5024789;28;20646;-74
2021/10/11 08:34:13;;;;;;;27.50;14.93;;;;;;;;;;5013975;28;20505;-75
2021/10/11 08:36:38;;;;;;;26.47;13.67;;;;;;;;;;5013795;28;20033;-74
2021/10/11 08:39:04;;;;;;;22.80;12.30;;;;;;;;;;5014595;28;20026;-74
2021/10/11 08:41:30;;;;;;;28.70;12.70;;;;;;;;;;5006013;28;20309;-73
2021/10/11 08:43:56;;;;;;;23.73;12.57;;;;;;;;;;5022493;28;20115;-73
2021/10/11 08:46:23;;;;;;;31.20;13.07;;;;;;;;;;5020500;28;20084;-75
2021/10/11 08:48:50;;;;;;;26.70;12.50;;;;;;;;;;5017973;28;20748;-75
2021/10/11 08:51:16;;;;;;;23.43;12.53;;;;;;;;;;5015599;28;20036;-74
2021/10/11 08:53:41;;;;;;;21.37;11.90;;;;;;;;;;5016973;28;20048;-75
2021/10/11 08:56:10;;;;;;;25.70;12.23;;;;;;;;;;5017401;28;20037;-75
2021/10/11 08:58:47;;;;;;;22.57;11.57;;;;;;;;;;5014487;28;20049;-73
2021/10/11 09:01:13;;;;;;;22.00;11.40;;;;;;;;;;5020873;28;20057;-75
2021/10/11 09:03:39;;;;;;;24.58;11.40;;;;;;;;;;5019656;28;20037;-74
2021/10/11 09:06:10;;;;;;;23.10;11.70;;;;;;;;;;5008797;28;20537;-73
2021/10/11 09:08:37;;;;;;;20.63;11.32;;;;;;;;;;5018034;28;20033;-74
2021/10/11 09:11:29;;;;;;;23.40;11.20;;;;;;;;;;5022118;28;20577;-74
2021/10/11 09:13:55;;;;;;;28.30;11.97;;;;;;;;;;5020846;28;20119;-75
2021/10/11 09:16:34;;;;;;;23.67;10.87;;;;;;;;;;5026863;28;20063;-74
2021/10/11 09:19:18;;;;;;;22.00;11.07;;;;;;;;;;5028658;28;20530;-73
2021/10/11 09:21:45;;;;;;;19.50;10.18;;;;;;;;;;5025405;28;20030;-73
2021/10/11 09:24:13;;;;;;;20.03;10.57;;;;;;;;;;5025699;28;20551;-73
2021/10/11 09:26:50;;;;;;;23.27;10.20;;;;;;;;;;5021598;28;20029;-74
2021/10/11 09:29:37;;;;;;;72.55;13.30;;;;;;;;;;5023768;28;20067;-74
2021/10/11 09:32:11;;;;;;;24.40;10.98;;;;;;;;;;5015412;28;20041;-77
2021/10/11 09:34:41;;;;;;;22.50;9.68;;;;;;;;;;5015847;28;20120;-74
2021/10/11 09:37:09;;;;;;;29.45;12.77;;;;;;;;;;5021052;28;20558;-75
2021/10/11 09:39:39;;;;;;;18.92;10.63;;;;;;;;;;5013658;28;20045;-73
2021/10/11 09:42:09;;;;;;;18.40;10.02;;;;;;;;;;5019336;28;20052;-75
2021/10/11 09:44:35;;;;;;;23.42;9.82;;;;;;;;;;5001612;28;20056;-75
2021/10/11 09:47:08;;;;;;;21.70;9.73;;;;;;;;;;5023120;28;20092;-74
2021/10/11 09:49:34;;;;;;;17.77;9.75;;;;;;;;;;5017632;28;20045;-73
2021/10/11 09:52:00;;;;;;;19.98;10.60;;;;;;;;;;5014763;28;20045;-74
2021/10/11 09:54:26;;;;;;;18.88;9.63;;;;;;;;;;5037574;28;20041;-75
2021/10/11 09:56:52;;;;;;;17.00;8.77;;;;;;;;;;5024756;28;20032;-74
2021/10/11 09:59:18;;;;;;;17.05;9.18;;;;;;;;;;5022694;28;20052;-74
2021/10/11 10:01:47;;;;;;;14.57;8.43;;;;;;;;;;5017071;28;20502;-74
2021/10/11 10:04:17;;;;;;;22.45;9.40;;;;;;;;;;5015405;28;20095;-75
2021/10/11 10:06:47;;;;;;;22.42;9.95;;;;;;;;;;5024203;28;20474;-74
2021/10/11 10:09:15;;;;;;;17.75;9.27;;;;;;;;;;5006416;28;20034;-75
2021/10/11 10:11:41;;;;;;;19.25;10.30;;;;;;;;;;5013086;28;20029;-75
2021/10/11 10:14:17;;;;;;;22.90;9.73;;;;;;;;;;5020454;28;20120;-75
2021/10/11 10:16:54;;;;;;;17.40;9.10;;;;;;;;;;5021884;28;20037;-74
2021/10/11 10:19:31;;;;;;;20.25;9.38;;;;;;;;;;5028212;28;20087;-74
2021/10/11 10:21:57;;;;;;;21.60;9.60;;;;;;;;;;5022727;28;20044;-73
2021/10/11 10:24:24;;;;;;;14.73;7.80;;;;;;;;;;5023780;28;20033;-73
2021/10/11 10:27:04;;;;;;;16.48;9.80;;;;;;;;;;5023227;28;20079;-75
2021/10/11 10:29:47;;;;;;;20.73;9.70;;;;;;;;;;5006221;28;20052;-73
2021/10/11 10:32:14;;;;;;;22.10;10.07;;;;;;;;;;5020277;28;20397;-74
2021/10/11 10:34:40;;;;;;;20.88;9.15;;;;;;;;;;5019784;28;20041;-74
2021/10/11 10:37:09;;;;;;;15.55;8.68;;;;;;;;;;5019615;28;20046;-75
2021/10/11 10:39:45;;;;;;;16.88;8.13;;;;;;;;;;5022776;28;20144;-75
2021/10/11 10:42:40;;;;;;;18.27;7.90;;;;;;;;;;5018674;28;20041;-73
2021/10/11 10:45:20;;;;;;;15.45;7.65;;;;;;;;;;4998398;28;20043;-73
2021/10/11 10:47:48;;;;;;;22.15;9.07;;;;;;;;;;5014634;28;20048;-73
2021/10/11 10:50:21;;;;;;;15.70;7.47;;;;;;;;;;5015234;28;20033;-74
2021/10/11 10:52:53;;;;;;;15.05;7.97;;;;;;;;;;5010572;28;20029;-74
2021/10/11 10:55:21;;;;;;;;;;;;;;;;;;5014175;28;20680;-76
2021/10/11 10:57:46;;;;;;;17.25;7.60;;;;;;;;;;5017364;28;19947;-73
2021/10/11 11:00:17;;;;;;;17.27;7.95;;;;;;;;;;5012042;28;20045;-74
2021/10/11 11:02:45;;;;;;;11.77;7.50;;;;;;;;;;5017830;28;20033;-74
2021/10/11 11:05:13;;;;;;;15.40;8.20;;;;;;;;;;5013533;28;20127;-74
2021/10/11 11:07:40;;;;;;;11.65;6.68;;;;;;;;;;5015146;28;20030;-76
2021/10/11 11:10:13;;;;;;;16.45;6.88;;;;;;;;;;5021720;28;20067;-74
2021/10/11 11:12:42;;;;;;;12.32;6.93;;;;;;;;;;5016885;28;20040;-74
2021/10/11 11:15:28;;;;;;;14.88;7.45;;;;;;;;;;5008557;28;20040;-75
2021/10/11 11:17:57;;;;;;;17.27;7.85;;;;;;;;;;5020955;28;20042;-74
2021/10/11 11:20:29;;;;;;;14.05;7.43;;;;;;;;;;5019169;28;20091;-75
2021/10/11 11:22:58;;;;;;;12.27;7.78;;;;;;;;;;5021019;28;20110;-75
2021/10/11 11:25:32;;;;;;;13.20;7.18;;;;;;;;;;5014942;28;20041;-74
2021/10/11 11:27:59;;;;;;;21.65;9.27;;;;;;;;;;5034463;28;20029;-76
2021/10/11 11:30:26;;;;;;;13.80;7.57;;;;;;;;;;5029598;28;20091;-76
2021/10/11 11:32:54;;;;;;;15.60;7.00;;;;;;;;;;5026462;28;20036;-75
2021/10/11 11:35:33;;;;;;;12.90;6.47;;;;;;;;;;5019858;28;20092;-75
2021/10/11 11:38:01;;;;;;;16.13;8.18;;;;;;;;;;5026093;28;20560;-74
2021/10/11 11:40:30;;;;;;;14.45;8.00;;;;;;;;;;5020258;28;20057;-74
2021/10/11 11:42:57;;;;;;;11.73;6.25;;;;;;;;;;5035508;28;20036;-75
2021/10/11 11:45:35;;;;;;;13.15;7.20;;;;;;;;;;5019944;28;20029;-74
2021/10/11 11:48:13;;;;;;;13.65;7.60;;;;;;;;;;5019511;28;20033;-75
2021/10/11 11:50:49;;;;;;;13.38;6.78;;;;;;;;;;5019565;28;20504;-74
2021/10/11 11:53:21;;;;;;;12.48;7.65;;;;;;;;;;5020715;28;20025;-76
2021/10/11 11:55:48;;;;;;;12.75;6.75;;;;;;;;;;5005996;28;20557;-76
2021/10/11 11:58:34;;;;;;;19.60;7.75;;;;;;;;;;5022501;28;20186;-79
2021/10/11 12:01:12;;;;;;;12.93;7.90;;;;;;;;;;5023018;28;20474;-76
2021/10/11 12:03:45;;;;;;;13.18;7.47;;;;;;;;;;5009657;28;20044;-77
2021/10/11 12:06:11;;;;;;;15.45;7.38;;;;;;;;;;5021903;28;20742;-78
2021/10/11 12:08:41;;;;;;;12.13;7.43;;;;;;;;;;5017481;28;20123;-78
2021/10/11 12:11:08;;;;;;;15.52;6.90;;;;;;;;;;5020623;28;20056;-77
2021/10/11 12:13:40;;;;;;;15.95;7.65;;;;;;;;;;5019236;28;20029;-75
2021/10/11 12:16:07;;;;;;;13.98;7.22;;;;;;;;;;5013324;28;20489;-76
2021/10/11 12:18:40;;;;;;;15.27;7.40;;;;;;;;;;5014149;28;20029;-77
2021/10/11 12:21:09;;;;;;;15.73;7.18;;;;;;;;;;5017572;28;20295;-76
2021/10/11 12:23:41;;;;;;;16.40;8.68;;;;;;;;;;5023314;28;20029;-76
2021/10/11 12:26:08;;;;;;;18.95;8.70;;;;;;;;;;5015440;28;20121;-77
2021/10/11 12:28:35;;;;;;;16.02;8.07;;;;;;;;;;5015512;28;20032;-76
2021/10/11 12:31:05;;;;;;;15.90;7.45;;;;;;;;;;5009998;28;20036;-75
2021/10/11 12:33:40;;;;;;;15.75;7.85;;;;;;;;;;5021411;28;20456;-75
2021/10/11 12:36:07;;;;;;;15.30;7.32;;;;;;;;;;5019865;28;20040;-75
2021/10/11 12:38:39;;;;;;;12.60;7.28;;;;;;;;;;5022230;28;20050;-75
2021/10/11 12:41:18;;;;;;;13.43;8.07;;;;;;;;;;5014208;28;20160;-76
2021/10/11 12:43:56;;;;;;;18.05;7.82;;;;;;;;;;5015147;28;20136;-75
2021/10/11 12:46:24;;;;;;;12.20;7.57;;;;;;;;;;5020449;28;20044;-75
2021/10/11 12:48:56;;;;;;;15.75;8.95;;;;;;;;;;5021527;28;20105;-77
2021/10/11 12:51:28;;;;;;;;;;;;;;;;;;5023541;28;20021;-76
2021/10/11 12:54:04;;;;;;;15.30;8.25;;;;;;;;;;5025012;28;19931;-75
2021/10/11 12:56:31;;;;;;;11.35;7.05;;;;;;;;;;5019252;28;20076;-76
2021/10/11 12:59:04;;;;;;;19.90;7.60;;;;;;;;;;5019247;28;20083;-74
2021/10/11 13:01:30;;;;;;;14.43;7.47;;;;;;;;;;5016521;28;20033;-77
2021/10/11 13:03:57;;;;;;;16.23;8.20;;;;;;;;;;5014704;28;20048;-74
2021/10/11 13:06:27;;;;;;;14.93;7.88;;;;;;;;;;5022037;28;20053;-75
2021/10/11 13:08:58;;;;;;;10.93;7.57;;;;;;;;;;5013746;28;20038;-77
2021/10/11 13:11:25;;;;;;;17.42;8.68;;;;;;;;;;5025780;28;20029;-75
2021/10/11 13:13:52;;;;;;;16.90;8.30;;;;;;;;;;5023428;28;20029;-75
2021/10/11 13:16:18;;;;;;;17.70;8.32;;;;;;;;;;5017145;28;21011;-74
2021/10/11 13:18:45;;;;;;;17.98;10.05;;;;;;;;;;5019224;28;20595;-76
2021/10/11 13:21:11;;;;;;;14.05;7.18;;;;;;;;;;5016556;28;20481;-76
2021/10/11 13:23:42;;;;;;;15.93;7.70;;;;;;;;;;5025450;28;20441;-78
2021/10/11 13:26:11;;;;;;;18.85;9.27;;;;;;;;;;5015030;28;20041;-76
2021/10/11 13:28:38;;;;;;;16.48;7.75;;;;;;;;;;5017118;28;20041;-77
2021/10/11 13:31:54;;;;;;;17.20;7.78;;;;;;;;;;5006197;28;20473;-76
2021/10/11 13:34:27;;;;;;;13.45;7.95;;;;;;;;;;5024472;28;20392;-77
2021/10/11 14:28:40;;;;;;;25.40;11.75;;;;;;;;;;5010747;28;20053;-75
2021/10/11 14:31:23;;;;;;;24.65;13.23;;;;;;;;;;5011317;28;20044;-75
2021/10/11 16:06:08;;;;;;;42.80;21.73;;;;;;;;;;5021596;28;20112;-73
2021/10/11 16:08:33;;;;;;;37.13;20.00;;;;;;;;;;5030298;28;20038;-76
2021/10/11 16:11:00;;;;;;;38.90;20.15;;;;;;;;;;5019709;28;20034;-74
2021/10/11 16:13:27;;;;;;;34.47;17.27;;;;;;;;;;5019834;28;20482;-74
2021/10/11 16:15:52;;;;;;;33.80;16.70;;;;;;;;;;5029792;28;20157;-75
2021/10/11 16:18:18;;;;;;;30.80;15.25;;;;;;;;;;5026213;28;20116;-74
2021/10/11 16:20:44;;;;;;;29.08;15.13;;;;;;;;;;5025178;28;20393;-76
2021/10/11 16:23:11;;;;;;;33.65;17.40;;;;;;;;;;5013257;28;20033;-75
2021/10/11 16:25:38;;;;;;;27.20;14.38;;;;;;;;;;5011626;28;20563;-74
2021/10/11 16:28:07;;;;;;;23.63;14.23;;;;;;;;;;5015243;28;20064;-74
2021/10/11 16:30:34;;;;;;;27.87;14.90;;;;;;;;;;5011984;28;20021;-75
2021/10/11 16:32:59;;;;;;;29.42;15.00;;;;;;;;;;5012364;28;20037;-74
2021/10/11 16:35:25;;;;;;;27.92;14.77;;;;;;;;;;5023353;28;20075;-74
2021/10/11 16:37:51;;;;;;;27.90;13.50;;;;;;;;;;5025182;28;20499;-75
2021/10/11 16:40:18;;;;;;;25.87;14.03;;;;;;;;;;5022401;28;20033;-75
2021/10/11 16:42:44;;;;;;;20.33;11.57;;;;;;;;;;5026461;28;20038;-75
2021/10/11 16:45:09;;;;;;;18.40;10.68;;;;;;;;;;5017001;28;20036;-74
2021/10/11 16:47:35;;;;;;;22.98;11.93;;;;;;;;;;5011035;28;20038;-76
2021/10/11 16:50:01;;;;;;;25.48;13.40;;;;;;;;;;5011156;28;20036;-75